Rockland, Delaware
Current Conditions -  °F | °C
As of 3:51 PM on Thursday 20 Nov 2014 (Local Time) from KILG Reporting Station
Scattered Clouds Scattered Clouds  
Wind Chill: 44°   Ceiling: Unl
Heat Index: 47°   Visibility: 10mi
Dew Point: 24°   Wind: 7mph
Humidity: 41%   Direction: 240°WSW
Pressure: 29.9"   Gusts: NA
Location:  39.8°N, 75.57°W
Report Text: KILG 202051Z 24006KT 10SM SCT070 08/M04 A2990 RMK AO2 SLP124 T00831044 55006
Loading
Personal Weather Stations






























Interactive Weather Map New forecast layout! Learn more

10-Day Weather Forecast

Advertisements
Track Severe Weather on mobile